Terminal Aerodrome Forecast
Issued by NWS Jackson, KY

Home | Current Version | Previous Version | Text Only | Print | Product List | Glossary On
Versions: 1 2 3 4 5 6 7 8 9 10 11 12 13 14 15 16 17 18 19 20 21
000
FTUS43 KJKL 160500
TAFJKL
TAF
KJKL 160540Z 1606/1706 19004KT 6SM -SHRA VCTS BKN020CB OVC035
     FM160900 21006KT 6SM -SHRA BR OVC015
     FM161600 25010G15KT 4SM -DZ BR OVC012
     FM162200 25008KT 4SM -DZ BR OVC010=

USA.gov is the U.S. government's official web portal to all federal, state and local government web resources and services.